03:04
Airports
Links
Donate
Help keep this website running!
PayPal
Bitcoin
METAR
SBRJ 180300Z 07005KT 9999 FEW020 BKN040 26/23 Q1014
Current Weather Conditions at SBRJ
VFR 03:00:00 18-02-18
Altimeter:29.94 hg
Temp:26.0°c 79°f
Dew point:23.0°c 73°f
Wind:5 knots, 5.8 mph, 3 m/s, from 70°
Visibility:6.21 statute miles
4000(BKN) Broken
2000(FEW) A few
Past METAR reports
VFR 02:00:00 18-02-18
Altimeter:29.97 hg
Temp:26.0°c 79°f
Dew point:23.0°c 73°f
Wind:4 knots, 4.6 mph, 2 m/s, from 50°
Visibility:6.21 statute miles
4000(BKN) Broken
2000(SCT) Scattered
SBRJ 180200Z 05004KT 9999 SCT020 BKN040 26/23 Q1015
VFR 01:00:00 18-02-18
Altimeter:29.97 hg
Temp:26.0°c 79°f
Dew point:23.0°c 73°f
Wind:3 knots, 3.5 mph, 2 m/s, from 60°
Visibility:6.21 statute miles
5000(BKN) Broken
2000(FEW) A few
SBRJ 180100Z 06003KT 9999 FEW020 BKN050 26/23 Q1015
VFR 00:00:00 18-02-18
Altimeter:29.97 hg
Temp:26.0°c 79°f
Dew point:23.0°c 73°f
Wind:6 knots, 6.9 mph, 3 m/s, from 60°
Visibility:6.21 statute miles
4500(BKN) Broken
2000(SCT) Scattered
SBRJ 180000Z 06006KT 9999 SCT020 BKN045 26/23 Q1015
VFR 23:00:00 17-02-18
Altimeter:29.97 hg
Temp:26.0°c 79°f
Dew point:23.0°c 73°f
Wind:7 knots, 8.1 mph, 4 m/s, from 40°
Visibility:6.21 statute miles
5000(BKN) Broken
1500(SCT) Scattered
SBRJ 172300Z 04007KT 9999 SCT015 BKN050 26/23 Q1015
VFR 22:00:00 17-02-18
Altimeter:29.97 hg
Temp:27.0°c 81°f
Dew point:23.0°c 73°f
Wind:7 knots, 8.1 mph, 4 m/s, from 140°
Visibility:6.21 statute miles
4000(BKN) Broken
1500(SCT) Scattered
SBRJ 172200Z 14007KT 9999 SCT015 BKN040 27/23 Q1015
TAF
No TAF for SBRJ
Forecast at SBRJ
No Forecast Reports for SBRJ